Record high temperature 42.2°C Record low temperature -14.6°C Record high gust 76.2 km/h Record high average 96.8 km/h Record daily rain 63.7 mm Record low windchill -17.5°C Record high barometer 1046.0 hPa Record low barometer 960.0 hPa
Daily high pressure 987.0 hPa Daily low pressure 986.0 hPa Daily low windchill 2.7°C Daily high heat index 3.8°C Daily high gust speed 0.0 kmh WSW Daily high average speed 0.0 kmh S

This page is updated from recent data collected by a WMR200 weather station Use the Reload or Refresh facility on your browser to retrieve the latest data.

Status report of weather station: Bienvenue sur la Station Météo de Godarville



Weather report/warning/Metars

Alexandroupoli Airport , Greece (LGAL) 40-51N 025-55E 3M
Sep 28, 2022 - 07:50 PM EDT / 2022.09.28 2350 UTC
Wind: Calm:0
Visibility: greater than 7 mile(s):0
Sky conditions: mostly clear
Temperature: 60 F (16 C)
Dew Point: 53 F (12 C)
Relative Humidity: 77%
Pressure (altimeter): 29.71 in. Hg (1006 hPa)
ob: LGAL 282350Z 00000KT 9999 FEW015 16/12 Q1006
cycle: 0

Charleroi / Gosselies, Belgium (EBCI) 50-28N 004-27E 192M
Sep 28, 2022 - 08:20 PM EDT / 2022.09.29 0020 UTC
Wind: from the SSW (210 degrees) at 5 MPH (4 KT):0
Visibility: greater than 7 mile(s):0
Temperature: 42 F (6 C)
Dew Point: 39 F (4 C)
Relative Humidity: 86%
Pressure (altimeter): 29.53 in. Hg (1000 hPa)
ob: EBCI 290020Z 21004KT CAVOK 06/04 Q1000 NOSIG
cycle: 0

Bruxelles National, Belgium (EBBR) 50-54N 004-32E 58M
Sep 28, 2022 - 08:20 PM EDT / 2022.09.29 0020 UTC
Wind: from the SSW (210 degrees) at 7 MPH (6 KT):0
Visibility: greater than 7 mile(s):0
Temperature: 42 F (6 C)
Dew Point: 39 F (4 C)
Relative Humidity: 86%
Pressure (altimeter): 29.53 in. Hg (1000 hPa)
ob: EBBR 290020Z 21006KT CAVOK 06/04 Q1000 NOSIG
cycle: 0

Koksijde, Belgium (EBFN) 51-05N 002-39E 9M
Sep 28, 2022 - 08:25 PM EDT / 2022.09.29 0025 UTC
Wind: from the SSW (210 degrees) at 6 MPH (5 KT):0
Visibility: greater than 7 mile(s):0
Sky conditions: overcast
Temperature: 48 F (9 C)
Dew Point: 48 F (9 C)
Relative Humidity: 100%
Pressure (altimeter): 29.50 in. Hg (0999 hPa)
ob: EBFN 290025Z AUTO 21005KT 9999 OVC038/// 09/09 Q0999 BLU
cycle: 0

Poznan, Poland (EPPO) 52-25N 016-50E 92M
Sep 28, 2022 - 08:30 PM EDT / 2022.09.29 0030 UTC
Wind: from the SW (230 degrees) at 6 MPH (5 KT):0
Visibility: greater than 7 mile(s):0
Sky conditions: mostly cloudy
Temperature: 46 F (8 C)
Dew Point: 44 F (7 C)
Relative Humidity: 93%
Pressure (altimeter): 29.53 in. Hg (1000 hPa)
ob: EPPO 290030Z 23005KT 9999 FEW020 BKN040 08/07 Q1000 
cycle: 0



Coucher du Soleil:
19:27:56

Lever de Lune:
10:31:06 28/09/22

Coucher de Lune:
20:26:51 28/09/22

Premier Quartier 3 octobre 2022
Pleine Lune 9 octobre 2022
Dernier Quartier 17 octobre 2022
Nouvelle Lune 25 octobre 2022
Âge de lune : 3 jours,1 heures,6 minutes,10%
Les heures du jour possible étaient aujourd’hui 11:49



Use the RELOAD facility on your browser to retrieve the latest data.

Click here for a daily update of the averages/extremes to date for the month
Created by "Weather Display" software version 10.37P at this start time/date 09:38:36 25/09/2022